createdAt,value
2022-10-28T00:00:31.896Z,76228.22
2022-10-28T00:04:35.107Z,76228.22
2022-10-28T00:08:36.611Z,76232.38
2022-10-28T00:12:38.237Z,76224.06
2022-10-28T00:16:40.640Z,76209.53
2022-10-28T00:20:43.476Z,76192.91
2022-10-28T00:24:45.003Z,76182.53
2022-10-28T00:28:48.259Z,76163.84
2022-10-28T00:32:49.928Z,76174.22
2022-10-28T00:36:52.924Z,76170.06
2022-10-28T00:40:54.352Z,76170.06
2022-10-28T00:44:58.399Z,76188.75
2022-10-28T00:49:04.171Z,76224.06
2022-10-28T00:53:14.064Z,76246.91
2022-10-28T00:57:18.812Z,76184.63
2022-10-28T01:01:20.284Z,76178.38
2022-10-28T01:05:27.622Z,76165.94
2022-10-28T01:09:30.408Z,76130.63
2022-10-28T01:13:43.727Z,76076.66
2022-10-28T01:17:54.951Z,76028.91
2022-10-28T01:22:13.236Z,76035.13
2022-10-28T01:26:38.919Z,75993.63
2022-10-28T01:31:10.422Z,75987.38
2022-10-28T01:35:18.938Z,75987.38
2022-10-28T01:39:29.115Z,75974.94
2022-10-28T01:43:36.300Z,75966.63
2022-10-28T01:47:47.140Z,75979.09
2022-10-28T01:51:53.687Z,76010.22
2022-10-28T01:55:59.215Z,76018.53
2022-10-28T02:00:02.034Z,76033.06
2022-10-28T02:04:08.083Z,76018.53
2022-10-28T02:08:27.851Z,76012.28
2022-10-28T02:12:31.880Z,75977.00
2022-10-28T02:16:43.688Z,75985.31
2022-10-28T02:20:52.791Z,75987.38
2022-10-28T02:25:01.171Z,76014.38
2022-10-28T02:29:07.581Z,76057.97
2022-10-28T02:33:12.664Z,76074.56
2022-10-28T02:37:20.851Z,76055.91
2022-10-28T02:41:26.796Z,76045.50
2022-10-28T02:45:34.564Z,76053.81
2022-10-28T02:49:42.133Z,76043.44
2022-10-28T02:53:55.427Z,76022.69
2022-10-28T02:57:57.363Z,76022.69
2022-10-28T03:01:59.108Z,75987.38
2022-10-28T03:06:00.832Z,76020.59
2022-10-28T03:10:04.163Z,76022.69
2022-10-28T03:14:10.669Z,76087.03
2022-10-28T03:18:14.651Z,76134.78
2022-10-28T03:22:16.311Z,76174.22
2022-10-28T03:26:19.055Z,76217.84
2022-10-28T03:30:20.695Z,76228.22
2022-10-28T03:34:22.171Z,76209.53
2022-10-28T03:38:23.699Z,76205.38
2022-10-28T03:42:26.475Z,76168.00
2022-10-28T03:46:29.134Z,76149.31
2022-10-28T03:50:32.687Z,76141.00
2022-10-28T03:54:34.072Z,76136.84
2022-10-28T03:58:40.895Z,76174.22
2022-10-28T04:02:42.771Z,76195.00
2022-10-28T04:06:44.196Z,76207.44
2022-10-28T04:10:47.633Z,76251.06
2022-10-28T04:14:50.687Z,76219.91
2022-10-28T04:18:52.265Z,76224.06
2022-10-28T04:22:56.229Z,76207.44
2022-10-28T04:26:58.711Z,76188.75
2022-10-28T04:31:01.655Z,76259.34
2022-10-28T04:35:03.561Z,76311.25
2022-10-28T04:39:05.117Z,76325.78
2022-10-28T04:43:08.582Z,76338.25
2022-10-28T04:47:13.139Z,76346.56
2022-10-28T04:51:14.689Z,76340.31
2022-10-28T04:55:16.424Z,76329.94
2022-10-28T04:59:17.824Z,76315.41
2022-10-28T05:03:20.628Z,76319.56
2022-10-28T05:07:23.561Z,76344.47
2022-10-28T05:11:25.167Z,76352.78
2022-10-28T05:15:26.583Z,76294.66
2022-10-28T05:19:29.339Z,76242.75
2022-10-28T05:23:31.101Z,76217.84
2022-10-28T05:27:33.655Z,76219.91
2022-10-28T05:31:35.051Z,76269.72
2022-10-28T05:35:37.993Z,76307.09
2022-10-28T05:39:39.408Z,76294.66
2022-10-28T05:43:40.823Z,76273.88
2022-10-28T05:47:42.997Z,76284.28
2022-10-28T05:51:46.124Z,76323.72
2022-10-28T05:55:48.018Z,76307.09
2022-10-28T05:59:52.228Z,76296.72
2022-10-28T06:03:53.670Z,76307.09
2022-10-28T06:07:56.497Z,76296.72
2022-10-28T06:11:56.394Z,76257.28
2022-10-28T06:15:57.973Z,76248.97
2022-10-28T06:19:59.461Z,76251.06
2022-10-28T06:24:02.472Z,76244.81
2022-10-28T06:28:06.972Z,76253.13
2022-10-28T06:32:11.834Z,76275.97
2022-10-28T06:36:13.210Z,76288.41
2022-10-28T06:40:16.112Z,76286.34
2022-10-28T06:44:17.524Z,76269.72
2022-10-28T06:48:20.845Z,76238.59
2022-10-28T06:52:22.219Z,76228.22
2022-10-28T06:56:25.160Z,76201.22
2022-10-28T07:00:27.425Z,76201.22
2022-10-28T07:04:29.376Z,76195.00
2022-10-28T07:08:32.365Z,76207.44
2022-10-28T07:12:35.245Z,76207.44
2022-10-28T07:16:36.934Z,76203.28
2022-10-28T07:20:40.757Z,76195.00
2022-10-28T07:24:42.160Z,76172.16
2022-10-28T07:28:45.177Z,76170.06
2022-10-28T07:32:46.825Z,76159.69
2022-10-28T07:36:49.471Z,76157.63
2022-10-28T07:40:51.061Z,76128.56
2022-10-28T07:44:53.960Z,76114.03
2022-10-28T07:48:55.325Z,76099.50
2022-10-28T07:52:57.268Z,76095.34
2022-10-28T07:56:58.931Z,76080.81
2022-10-28T08:01:04.818Z,76070.44
2022-10-28T08:05:07.198Z,76053.81
2022-10-28T08:09:08.652Z,76037.22
2022-10-28T08:13:10.026Z,76041.38
2022-10-28T08:17:13.012Z,76028.91
2022-10-28T08:21:15.385Z,76043.44
2022-10-28T08:25:16.936Z,76043.44
2022-10-28T08:29:18.560Z,76045.50
2022-10-28T08:33:21.503Z,76043.44
2022-10-28T08:37:23.232Z,76024.75
2022-10-28T08:41:32.967Z,75993.63
2022-10-28T08:45:44.431Z,75970.78
2022-10-28T08:49:52.215Z,75947.94
2022-10-28T08:53:57.010Z,75937.56
2022-10-28T08:58:06.572Z,75933.41
2022-10-28T09:02:19.743Z,75952.09
2022-10-28T09:06:22.692Z,75910.56
2022-10-28T09:10:52.342Z,75912.66
2022-10-28T09:15:18.199Z,75900.19
2022-10-28T09:19:33.969Z,75891.88
2022-10-28T09:23:45.381Z,75891.88
2022-10-28T09:27:58.030Z,75902.28
2022-10-28T09:32:11.180Z,75889.81
2022-10-28T09:36:18.240Z,75862.81
2022-10-28T09:40:24.110Z,75840.00
2022-10-28T09:44:32.508Z,75819.22
2022-10-28T09:48:37.806Z,75777.72
2022-10-28T09:52:50.794Z,75725.81
2022-10-28T09:56:53.948Z,75692.59
2022-10-28T10:00:55.447Z,75634.47
2022-10-28T10:04:58.613Z,75576.34
2022-10-28T10:09:00.928Z,75526.53
2022-10-28T10:13:06.116Z,75476.72
2022-10-28T10:17:15.029Z,75426.91
2022-10-28T10:21:16.623Z,75424.81
2022-10-28T10:25:27.926Z,75387.47
2022-10-28T10:29:30.962Z,75337.63
2022-10-28T10:33:35.687Z,75327.25
2022-10-28T10:37:42.569Z,75321.03
2022-10-28T10:41:45.131Z,75285.75
2022-10-28T10:45:52.133Z,75281.59
2022-10-28T10:50:19.131Z,75265.00
2022-10-28T10:54:20.825Z,75221.41
2022-10-28T10:58:24.938Z,75096.88
2022-10-28T11:02:32.318Z,75063.66
2022-10-28T11:06:38.743Z,75036.66
2022-10-28T11:10:40.828Z,74974.41
2022-10-28T11:14:55.960Z,74957.81
2022-10-28T11:19:12.996Z,74974.41
2022-10-28T11:23:36.778Z,74966.09
2022-10-28T11:27:56.316Z,74991.00
2022-10-28T11:32:12.849Z,75059.50
2022-10-28T11:36:23.214Z,75111.41
2022-10-28T11:40:33.522Z,75152.91
2022-10-28T11:44:45.174Z,75128.00
2022-10-28T11:49:06.541Z,75148.75
2022-10-28T11:53:36.618Z,75105.16
2022-10-28T11:57:53.795Z,75055.34
2022-10-28T12:02:09.771Z,75055.34
2022-10-28T12:06:17.899Z,75051.19
2022-10-28T12:10:42.867Z,75007.63
2022-10-28T12:14:53.744Z,74991.00
2022-10-28T12:19:00.045Z,75007.63
2022-10-28T12:23:06.594Z,75015.91
2022-10-28T12:27:17.077Z,75020.06
2022-10-28T12:31:24.045Z,75063.66
2022-10-28T12:35:30.508Z,75098.94
2022-10-28T12:39:34.840Z,75113.47
2022-10-28T12:43:42.337Z,75115.53
2022-10-28T12:47:51.153Z,75088.56
2022-10-28T12:51:53.014Z,75051.19
2022-10-28T12:55:58.710Z,75028.38
2022-10-28T13:00:10.732Z,75059.50
2022-10-28T13:04:13.062Z,75094.78
2022-10-28T13:08:35.580Z,75101.00
2022-10-28T13:12:53.023Z,75130.06
2022-10-28T13:17:20.222Z,75121.78
2022-10-28T13:21:31.997Z,75123.84
2022-10-28T13:25:59.089Z,75105.16
2022-10-28T13:30:01.102Z,75128.00
2022-10-28T13:34:04.471Z,75163.28
2022-10-28T13:38:11.682Z,75169.50
2022-10-28T13:42:44.261Z,75192.34
2022-10-28T13:47:26.461Z,75231.78
2022-10-28T13:51:44.684Z,75227.63
2022-10-28T13:55:46.571Z,75273.28
2022-10-28T13:59:52.421Z,75269.13
2022-10-28T14:03:53.902Z,75279.53
2022-10-28T14:07:59.969Z,75283.66
2022-10-28T14:12:13.086Z,75298.19
2022-10-28T14:16:24.799Z,75350.09
2022-10-28T14:20:33.390Z,75391.59
2022-10-28T14:24:37.996Z,75433.13
2022-10-28T14:28:50.519Z,75470.47
2022-10-28T14:33:19.381Z,75466.34
2022-10-28T14:37:49.968Z,75503.69
2022-10-28T14:42:04.512Z,75522.38
2022-10-28T14:46:18.815Z,75512.00
2022-10-28T14:50:22.279Z,75476.72
2022-10-28T14:54:36.547Z,75520.31
2022-10-28T14:58:44.552Z,75536.91
2022-10-28T15:02:46.903Z,75565.97
2022-10-28T15:06:50.694Z,75588.81
2022-10-28T15:10:52.334Z,75574.28
2022-10-28T15:14:56.567Z,75592.97
2022-10-28T15:18:57.959Z,75565.97
2022-10-28T15:23:12.489Z,75588.81
2022-10-28T15:27:14.930Z,75597.09
2022-10-28T15:31:17.863Z,75599.19
2022-10-28T15:35:39.126Z,75632.41
2022-10-28T15:39:40.561Z,75626.16
2022-10-28T15:43:54.176Z,75622.03
2022-10-28T15:47:59.287Z,75655.22
2022-10-28T15:52:21.126Z,75661.47
2022-10-28T15:56:24.427Z,75715.44
2022-10-28T16:00:28.368Z,75765.25
2022-10-28T16:04:43.526Z,75813.00
2022-10-28T16:08:45.313Z,75844.13
2022-10-28T16:12:46.898Z,75848.28
2022-10-28T16:16:48.309Z,75871.13
2022-10-28T16:20:51.921Z,75896.03
2022-10-28T16:24:54.553Z,75912.66
2022-10-28T16:28:56.294Z,75933.41
2022-10-28T16:32:57.849Z,75943.78
2022-10-28T16:37:00.876Z,75960.41
2022-10-28T16:41:03.893Z,75966.63
2022-10-28T16:45:06.295Z,75981.16
2022-10-28T16:49:07.860Z,76006.06
2022-10-28T16:53:13.130Z,76024.75
2022-10-28T16:57:15.266Z,76008.16
2022-10-28T17:01:20.536Z,76033.06
2022-10-28T17:05:23.492Z,76055.91
2022-10-28T17:09:26.441Z,76066.28
2022-10-28T17:13:27.832Z,76064.19
2022-10-28T17:17:29.684Z,76076.66
2022-10-28T17:21:31.060Z,76091.19
2022-10-28T17:25:33.896Z,76101.56
2022-10-28T17:29:35.513Z,76111.94
2022-10-28T17:33:36.990Z,76114.03
2022-10-28T17:37:38.618Z,76126.47
2022-10-28T17:41:41.374Z,76128.56
2022-10-28T17:45:42.791Z,76153.47
2022-10-28T17:49:44.279Z,76163.84
2022-10-28T17:53:45.698Z,76172.16
2022-10-28T17:57:48.466Z,76184.63
2022-10-28T18:01:49.980Z,76199.16
2022-10-28T18:05:51.652Z,76211.59
2022-10-28T18:09:53.181Z,76232.38
2022-10-28T18:13:56.011Z,76242.75
2022-10-28T18:17:57.459Z,76242.75
2022-10-28T18:21:59.031Z,76248.97
2022-10-28T18:26:02.671Z,76253.13
2022-10-28T18:30:09.274Z,76259.34
2022-10-28T18:34:10.975Z,76261.44
2022-10-28T18:38:13.388Z,76278.03
2022-10-28T18:42:17.880Z,76278.03
2022-10-28T18:46:25.252Z,76286.34
2022-10-28T18:50:26.841Z,76298.81
2022-10-28T18:54:28.221Z,76311.25
2022-10-28T18:58:29.740Z,76302.94
2022-10-28T19:02:32.635Z,76317.50
2022-10-28T19:06:34.412Z,76307.09
2022-10-28T19:10:35.820Z,76315.41
2022-10-28T19:14:37.389Z,76329.94
2022-10-28T19:18:40.424Z,76327.88
2022-10-28T19:22:42.073Z,76323.72
2022-10-28T19:26:43.653Z,76336.19
2022-10-28T19:30:45.065Z,76334.09
2022-10-28T19:34:47.813Z,76344.47
2022-10-28T19:38:51.059Z,76342.41
2022-10-28T19:46:59.633Z,76352.78
2022-10-28T19:51:02.917Z,76361.09
2022-10-28T19:55:05.117Z,76352.78
2022-10-28T19:59:07.183Z,76356.94
2022-10-28T20:03:08.625Z,76365.25
2022-10-28T20:07:11.521Z,76365.25
2022-10-28T20:11:15.591Z,76371.47
2022-10-28T20:15:17.148Z,76377.69
2022-10-28T20:19:18.685Z,76373.53
2022-10-28T20:23:21.609Z,76367.31
2022-10-28T20:27:23.285Z,76356.94
2022-10-28T20:31:26.403Z,76354.84
2022-10-28T20:35:27.938Z,76356.94
2022-10-28T20:39:30.727Z,76379.78
2022-10-28T20:43:32.272Z,76390.16
2022-10-28T20:47:33.707Z,76398.47
2022-10-28T20:51:35.474Z,76400.53
2022-10-28T20:55:44.745Z,76410.91
2022-10-28T20:59:46.285Z,76408.84
2022-10-28T21:03:49.067Z,76410.91
2022-10-28T21:07:50.616Z,76413.00
2022-10-28T21:11:53.387Z,76423.38
2022-10-28T21:15:57.627Z,76425.44
2022-10-28T21:24:06.602Z,76433.75
2022-10-28T21:28:09.486Z,76435.84
2022-10-28T21:32:10.937Z,76440.00
2022-10-28T21:36:14.754Z,76454.53
2022-10-28T21:40:16.317Z,76464.91
2022-10-28T21:44:19.250Z,76475.28
2022-10-28T21:48:20.685Z,76491.91
2022-10-28T21:52:22.336Z,76496.03
2022-10-28T21:56:23.905Z,76498.13
2022-10-28T22:00:26.642Z,76508.50
2022-10-28T22:04:28.198Z,76516.81
2022-10-28T22:08:29.994Z,76518.88
2022-10-28T22:12:31.378Z,76520.97
2022-10-28T22:16:35.658Z,76518.88
2022-10-28T22:20:42.168Z,76525.13
2022-10-28T22:24:45.913Z,76539.66
2022-10-28T22:28:48.230Z,76543.81
2022-10-28T22:32:50.957Z,76558.34
2022-10-28T22:36:52.586Z,76562.50
2022-10-28T22:41:04.336Z,76556.25
2022-10-28T22:45:07.097Z,76547.94
2022-10-28T22:49:10.272Z,76543.81
2022-10-28T22:53:11.736Z,76554.19
2022-10-28T22:57:13.301Z,76552.09
2022-10-28T23:01:17.660Z,76543.81
2022-10-28T23:05:20.608Z,76541.72
2022-10-28T23:09:22.045Z,76523.03
2022-10-28T23:13:23.654Z,76529.25
2022-10-28T23:17:28.328Z,76523.03
2022-10-28T23:21:31.060Z,76500.19
2022-10-28T23:25:32.674Z,76514.72
2022-10-28T23:29:34.081Z,76516.81
2022-10-28T23:33:35.825Z,76510.59
2022-10-28T23:37:38.676Z,76512.66
2022-10-28T23:41:40.040Z,76510.59
2022-10-28T23:45:41.484Z,76518.88
2022-10-28T23:49:43.297Z,76508.50
2022-10-28T23:53:46.485Z,76506.44
2022-10-28T23:57:50.109Z,76518.88
